Aviation Digital Data Service (ADDS)

Output produced by METARs form (0042 UTC 21 July 2017)
found at http://aviationweather.gov/adds/metars/
 
KINT 202329Z 2100/2124 24005KT P6SM SCT070 BKN250